Time;durP1;ratioP1;P1;durP2;ratioP2;P2;SDS_P1;SDS_P2;PMS_P1;PMS_P2;Temp;Humidity;BMP_temperature;BMP_pressure;BME280_temperature;BME280_humidity;BME280_pressure;Samples;Min_cycle;Max_cycle;Signal;HPM_P1;HPM_P2
2021/06/16 00:01:01;;;;;;;13.57;12.18;;;21.10;85.80;;;;;;5092351;28;20137;-56
2021/06/16 00:03:45;;;;;;;14.02;12.73;;;20.90;85.90;;;;;;5092583;28;20149;-61
2021/06/16 00:06:29;;;;;;;15.23;13.55;;;20.90;86.80;;;;;;5091261;28;20483;-57
2021/06/16 00:09:13;;;;;;;13.02;11.70;;;20.90;86.90;;;;;;5092049;28;20411;-60
2021/06/16 00:11:58;;;;;;;;;;;21.00;86.70;;;;;;5077614;28;20054;-59
2021/06/16 00:14:43;;;;;;;14.98;13.43;;;21.00;86.60;;;;;;5092644;28;20332;-61
2021/06/16 00:17:27;;;;;;;15.10;13.55;;;21.00;86.40;;;;;;5084523;28;20030;-60
2021/06/16 00:20:11;;;;;;;13.48;12.05;;;21.00;86.30;;;;;;5091889;28;20035;-58
2021/06/16 00:22:56;;;;;;;;;;;20.90;86.50;;;;;;5096587;28;20063;-60
2021/06/16 00:25:40;;;;;;;13.23;11.93;;;20.80;87.00;;;;;;5069289;28;20543;-61
2021/06/16 00:28:24;;;;;;;16.08;14.52;;;20.80;87.20;;;;;;5080453;28;20097;-58
2021/06/16 00:31:08;;;;;;;;;;;20.80;86.90;;;;;;5081014;28;20047;-61
2021/06/16 00:33:53;;;;;;;15.93;14.23;;;20.80;86.70;;;;;;5096293;28;19911;-59
2021/06/16 00:36:37;;;;;;;15.15;13.60;;;20.70;87.30;;;;;;5096333;28;20027;-57
2021/06/16 00:39:21;;;;;;;14.73;13.18;;;20.60;87.50;;;;;;5096237;28;20088;-58
2021/06/16 00:42:07;;;;;;;16.05;14.30;;;20.60;87.50;;;;;;5096071;28;20043;-59
2021/06/16 00:44:51;;;;;;;15.55;13.40;;;20.60;87.50;;;;;;5080866;28;20533;-57
2021/06/16 00:47:35;;;;;;;16.15;13.52;;;20.50;87.80;;;;;;5095843;28;20067;-60
2021/06/16 00:50:19;;;;;;;15.27;13.80;;;20.50;88.40;;;;;;5095805;28;20100;-56
2021/06/16 00:53:04;;;;;;;17.90;13.65;;;20.60;88.00;;;;;;5095597;28;20124;-57
2021/06/16 00:55:48;;;;;;;19.15;16.08;;;20.60;87.40;;;;;;5097908;28;20138;-56
2021/06/16 00:58:33;;;;;;;21.48;19.25;;;20.50;87.50;;;;;;5080100;28;20444;-59
2021/06/16 01:01:25;;;;;;;;;;;20.40;88.00;;;;;;5098793;28;20038;-57
2021/06/16 01:04:21;;;;;;;18.95;16.98;;;20.30;88.50;;;;;;5105087;28;19978;-59
2021/06/16 01:07:09;;;;;;;18.48;16.65;;;20.20;89.10;;;;;;5095421;28;20124;-60
2021/06/16 01:10:00;;;;;;;18.80;15.63;;;20.20;89.20;;;;;;5095275;28;20113;-58
2021/06/16 01:13:00;;;;;;;15.75;14.10;;;20.20;89.10;;;;;;5115630;28;20140;-59
2021/06/16 01:16:09;;;;;;;17.10;14.20;;;20.10;89.20;;;;;;5081872;28;20067;-57
2021/06/16 01:18:59;;;;;;;16.40;14.75;;;20.10;89.10;;;;;;5098137;28;20030;-61
2021/06/16 01:21:46;;;;;;;15.93;14.10;;;20.00;89.90;;;;;;5115651;28;20026;-56
2021/06/16 01:24:31;;;;;;;15.73;14.23;;;20.00;90.00;;;;;;5115591;28;20031;-59
2021/06/16 01:27:16;;;;;;;15.43;13.75;;;19.90;90.20;;;;;;5074548;28;20073;-59
2021/06/16 01:30:02;;;;;;;16.65;14.07;;;19.80;90.40;;;;;;5074364;28;20051;-56
2021/06/16 01:32:48;;;;;;;17.25;15.55;;;19.80;90.60;;;;;;5074447;28;20039;-57
2021/06/16 01:35:36;;;;;;;18.13;16.42;;;19.80;90.60;;;;;;5074758;28;20078;-59
2021/06/16 01:38:22;;;;;;;17.75;16.00;;;19.70;90.70;;;;;;5073999;28;20403;-59
2021/06/16 01:41:09;;;;;;;18.10;16.52;;;19.70;90.60;;;;;;5074421;28;20068;-61
2021/06/16 01:43:55;;;;;;;19.60;15.75;;;19.70;90.70;;;;;;5074528;28;20086;-57
2021/06/16 01:46:41;;;;;;;16.88;15.13;;;19.80;90.90;;;;;;5086569;28;20068;-55
2021/06/16 01:49:27;;;;;;;16.48;14.75;;;19.80;90.60;;;;;;5094304;28;20153;-57
2021/06/16 01:52:11;;;;;;;16.27;14.68;;;19.70;90.70;;;;;;5094248;28;20574;-58
2021/06/16 01:54:57;;;;;;;17.55;15.68;;;19.60;90.90;;;;;;5094395;28;20078;-59
2021/06/16 01:57:42;;;;;;;15.85;14.35;;;19.60;91.10;;;;;;5094462;28;20038;-58
2021/06/16 02:00:27;;;;;;;19.13;16.95;;;19.60;91.10;;;;;;5094031;28;20062;-56
2021/06/16 02:03:11;;;;;;;22.83;18.20;;;19.50;91.40;;;;;;5078233;28;20457;-59
2021/06/16 02:06:00;;;;;;;17.15;15.38;;;19.40;91.30;;;;;;5093154;28;20399;-60
2021/06/16 02:08:48;;;;;;;17.67;15.55;;;19.40;91.30;;;;;;5093577;28;20051;-56
2021/06/16 02:11:38;;;;;;;19.67;16.05;;;19.50;91.40;;;;;;5093880;28;20026;-61
2021/06/16 02:14:24;;;;;;;17.55;15.48;;;19.50;91.30;;;;;;5093966;28;20030;-58
2021/06/16 02:17:11;;;;;;;16.33;14.68;;;19.60;91.40;;;;;;5091885;28;20059;-59
2021/06/16 02:19:55;;;;;;;15.57;13.98;;;19.70;91.10;;;;;;5094084;28;20042;-61
2021/06/16 02:22:40;;;;;;;;;;;19.80;90.80;;;;;;5094193;28;20031;-57
2021/06/16 02:25:25;;;;;;;17.52;15.63;;;19.70;90.60;;;;;;5093836;28;19915;-60
2021/06/16 02:28:09;;;;;;;18.98;17.02;;;19.70;90.60;;;;;;5078391;28;20046;-61
2021/06/16 02:30:54;;;;;;;15.73;14.23;;;19.60;90.70;;;;;;5093417;28;20050;-62
2021/06/16 02:33:38;;;;;;;;;;;19.60;90.80;;;;;;5094087;28;20081;-59
2021/06/16 02:36:23;;;;;;;16.30;13.88;;;19.50;91.00;;;;;;5093816;28;19969;-61
2021/06/16 02:39:12;;;;;;;17.83;15.57;;;19.40;91.20;;;;;;5093476;28;20116;-60
2021/06/16 02:41:57;;;;;;;15.32;13.80;;;19.40;91.00;;;;;;5093771;28;20039;-59
2021/06/16 02:44:44;;;;;;;;;;;19.40;91.30;;;;;;5077724;28;20043;-59
2021/06/16 02:47:32;;;;;;;17.05;15.32;;;19.40;91.20;;;;;;5093211;28;19914;-59
2021/06/16 02:50:23;;;;;;;16.77;15.13;;;19.50;90.90;;;;;;5077698;28;20063;-60
2021/06/16 02:53:13;;;;;;;17.13;15.38;;;19.50;90.80;;;;;;5093198;28;20087;-57
2021/06/16 02:56:02;;;;;;;15.68;14.07;;;19.50;90.80;;;;;;5093238;28;20096;-58
2021/06/16 02:58:48;;;;;;;16.33;14.30;;;19.50;91.10;;;;;;5077613;28;20097;-57
2021/06/16 03:01:35;;;;;;;17.33;14.68;;;19.50;90.60;;;;;;5093305;28;20510;-59
2021/06/16 03:04:21;;;;;;;16.55;14.85;;;19.40;90.80;;;;;;5093128;28;20042;-60
2021/06/16 03:07:06;;;;;;;17.75;14.15;;;19.40;90.70;;;;;;5073986;28;20423;-58
2021/06/16 03:09:50;;;;;;;16.83;14.95;;;19.40;90.90;;;;;;5072783;28;20048;-56
2021/06/16 03:12:36;;;;;;;16.13;14.43;;;19.40;90.90;;;;;;5073031;28;20086;-61
2021/06/16 03:15:21;;;;;;;14.95;13.50;;;19.40;90.90;;;;;;5076268;28;20077;-60
2021/06/16 03:18:07;;;;;;;15.48;13.93;;;19.40;90.80;;;;;;5092138;28;20533;-60
2021/06/16 03:20:56;;;;;;;17.40;15.65;;;19.40;90.80;;;;;;5077318;28;20038;-61
2021/06/16 03:23:42;;;;;;;14.45;13.05;;;19.50;90.70;;;;;;5092893;28;20039;-57
2021/06/16 03:26:27;;;;;;;15.30;13.70;;;19.50;90.80;;;;;;5092440;28;20180;-60
2021/06/16 03:29:12;;;;;;;15.90;14.38;;;19.60;90.80;;;;;;5092100;28;20039;-57
2021/06/16 03:31:57;;;;;;;;;;;19.60;90.60;;;;;;5093028;28;20391;-59
2021/06/16 03:34:41;;;;;;;15.98;14.30;;;19.60;90.90;;;;;;5092889;28;19962;-60
2021/06/16 03:37:26;;;;;;;16.17;14.52;;;19.60;90.80;;;;;;5092189;28;20093;-61
2021/06/16 03:40:11;;;;;;;19.92;13.98;;;19.60;90.70;;;;;;5092586;28;20039;-58
2021/06/16 03:42:57;;;;;;;19.48;14.20;;;19.60;90.80;;;;;;5092422;28;20387;-58
2021/06/16 03:45:43;;;;;;;16.55;14.23;;;19.70;90.80;;;;;;5092454;28;20031;-60
2021/06/16 03:48:28;;;;;;;20.38;16.52;;;19.70;90.60;;;;;;5092049;28;20039;-63
2021/06/16 03:51:15;;;;;;;21.20;17.77;;;19.80;90.60;;;;;;5076792;28;20103;-60
2021/06/16 03:54:01;;;;;;;19.48;16.65;;;19.80;90.50;;;;;;5077585;28;20502;-60
2021/06/16 03:56:46;;;;;;;18.92;16.95;;;19.80;90.60;;;;;;5092151;28;20126;-60
2021/06/16 03:59:32;;;;;;;19.58;17.63;;;19.90;90.40;;;;;;5092250;28;20038;-59
2021/06/16 04:02:17;;;;;;;20.10;17.92;;;19.90;90.20;;;;;;5092719;28;20086;-57
2021/06/16 04:05:07;;;;;;;19.95;17.60;;;19.90;90.30;;;;;;5092462;28;20051;-60
2021/06/16 04:07:53;;;;;;;21.58;16.58;;;19.90;90.20;;;;;;5083806;28;20408;-62
2021/06/16 04:10:38;;;;;;;19.13;17.38;;;20.00;90.10;;;;;;5073707;28;20038;-58
2021/06/16 04:13:22;;;;;;;23.50;19.17;;;20.10;90.00;;;;;;5077168;28;20059;-59
2021/06/16 04:16:07;;;;;;;19.02;16.58;;;20.00;90.00;;;;;;5092509;28;20096;-59
2021/06/16 04:18:52;;;;;;;21.05;17.92;;;20.00;90.10;;;;;;5092231;28;20398;-61
2021/06/16 04:21:37;;;;;;;21.58;18.63;;;20.00;90.00;;;;;;5093357;28;20038;-59
2021/06/16 04:24:21;;;;;;;19.38;17.42;;;19.90;90.20;;;;;;5092579;28;20031;-58
2021/06/16 04:27:06;;;;;;;20.92;18.92;;;20.00;90.30;;;;;;5056570;28;20039;-61
2021/06/16 04:29:50;;;;;;;19.30;17.27;;;20.10;90.20;;;;;;5072458;28;20035;-61
2021/06/16 04:32:36;;;;;;;22.13;18.33;;;20.10;90.20;;;;;;5074322;28;20038;-61
2021/06/16 04:35:21;;;;;;;22.98;20.40;;;20.30;90.00;;;;;;5089406;28;20102;-61
2021/06/16 04:38:05;;;;;;;21.13;18.48;;;20.20;89.90;;;;;;5089854;28;20093;-58
2021/06/16 04:40:49;;;;;;;;;;;20.20;90.00;;;;;;5091423;28;20090;-60
2021/06/16 04:43:34;;;;;;;21.77;19.58;;;20.20;90.10;;;;;;5077699;28;20008;-59
2021/06/16 04:46:17;;;;;;;26.90;21.25;;;20.20;90.30;;;;;;5067309;28;20044;-57
2021/06/16 04:49:02;;;;;;;;;;;20.30;90.10;;;;;;5057009;28;20040;-57
2021/06/16 04:51:46;;;;;;;24.77;22.17;;;20.40;90.00;;;;;;5086239;28;19962;-54
2021/06/16 04:54:30;;;;;;;24.08;21.55;;;20.30;90.30;;;;;;5092449;28;20093;-55
2021/06/16 04:57:14;;;;;;;26.48;23.90;;;20.30;90.20;;;;;;5092403;28;20584;-59
2021/06/16 04:59:58;;;;;;;25.20;21.90;;;20.20;90.20;;;;;;5093024;28;20047;-58
2021/06/16 05:02:42;;;;;;;25.25;22.75;;;20.10;90.40;;;;;;5092370;28;20119;-57
2021/06/16 05:05:28;;;;;;;25.08;22.30;;;20.10;90.50;;;;;;5091858;28;20411;-58
2021/06/16 05:08:12;;;;;;;24.15;21.67;;;20.20;90.50;;;;;;5094841;28;20051;-58
2021/06/16 05:10:56;;;;;;;27.75;22.67;;;20.30;90.50;;;;;;5095605;28;20129;-57
2021/06/16 05:13:40;;;;;;;32.80;23.63;;;20.40;90.30;;;;;;5095739;28;20032;-61
2021/06/16 05:16:27;;;;;;;32.50;25.50;;;20.50;90.20;;;;;;5079791;28;20074;-58
2021/06/16 05:19:20;;;;;;;27.70;21.42;;;20.50;90.00;;;;;;5095623;28;20062;-57
2021/06/16 05:22:13;;;;;;;25.05;22.15;;;20.60;90.10;;;;;;5081149;28;20062;-59
2021/06/16 05:25:01;;;;;;;24.52;21.90;;;20.60;90.00;;;;;;5095593;28;20035;-58
2021/06/16 05:27:45;;;;;;;25.27;22.20;;;20.70;90.00;;;;;;5096103;28;20043;-60
2021/06/16 05:30:29;;;;;;;25.08;22.70;;;20.70;90.00;;;;;;5095243;28;20035;-59
2021/06/16 05:33:14;;;;;;;;;;;20.60;90.10;;;;;;5095773;28;20409;-59
2021/06/16 05:35:58;;;;;;;26.77;22.42;;;20.70;89.90;;;;;;5096008;28;19956;-59
2021/06/16 05:38:43;;;;;;;32.08;22.58;;;20.80;90.10;;;;;;5095879;28;20039;-60
2021/06/16 05:41:27;;;;;;;113.82;37.08;;;20.90;89.60;;;;;;5080013;28;20028;-57
2021/06/16 05:44:12;;;;;;;35.80;23.50;;;21.00;89.70;;;;;;5080286;28;20578;-61
2021/06/16 05:46:56;;;;;;;32.95;23.02;;;21.10;89.60;;;;;;5095643;28;20043;-61
2021/06/16 05:49:40;;;;;;;45.30;26.08;;;21.10;89.70;;;;;;5095188;28;20035;-57
2021/06/16 05:52:24;;;;;;;64.70;28.83;;;21.20;89.40;;;;;;5095262;28;20391;-55
2021/06/16 05:55:08;;;;;;;49.78;26.33;;;21.30;89.30;;;;;;5094678;28;20043;-60
2021/06/16 05:57:52;;;;;;;49.05;26.75;;;21.40;89.10;;;;;;5095645;28;20039;-59
2021/06/16 06:00:36;;;;;;;28.77;24.33;;;21.50;89.20;;;;;;5095402;28;20039;-61
2021/06/16 06:03:20;;;;;;;32.58;26.17;;;21.50;88.90;;;;;;5094642;28;20111;-62
2021/06/16 06:06:04;;;;;;;28.52;24.58;;;21.50;89.10;;;;;;5094503;28;20460;-63
2021/06/16 06:08:48;;;;;;;32.00;24.98;;;21.50;89.40;;;;;;5078976;28;20085;-60
2021/06/16 06:11:38;;;;;;;50.25;39.97;;;21.50;89.10;;;;;;5094477;28;20529;-59
2021/06/16 06:14:23;;;;;;;35.50;26.75;;;21.70;88.60;;;;;;5094967;28;20525;-60
2021/06/16 06:17:07;;;;;;;26.90;23.80;;;22.00;88.00;;;;;;5094622;28;20042;-60
2021/06/16 06:19:51;;;;;;;26.27;23.60;;;22.10;87.50;;;;;;5094527;28;20043;-60
2021/06/16 06:22:36;;;;;;;24.98;22.27;;;22.10;87.70;;;;;;5076317;28;20088;-58
2021/06/16 06:25:20;;;;;;;56.38;39.33;;;22.20;87.40;;;;;;5094040;28;20379;-56
2021/06/16 06:28:04;;;;;;;26.33;23.55;;;22.30;87.20;;;;;;5094047;28;20031;-59
2021/06/16 06:30:49;;;;;;;30.35;24.75;;;22.30;87.30;;;;;;5096889;28;20043;-57
2021/06/16 06:33:33;;;;;;;24.77;21.55;;;22.30;87.30;;;;;;5093372;28;20067;-61
2021/06/16 06:36:18;;;;;;;28.38;24.42;;;22.40;87.30;;;;;;5073687;28;20078;-58
2021/06/16 06:39:03;;;;;;;27.17;24.35;;;22.40;87.20;;;;;;5081994;28;20103;-60
2021/06/16 06:41:47;;;;;;;25.20;22.27;;;22.30;88.10;;;;;;5094204;28;20082;-60
2021/06/16 06:44:31;;;;;;;27.52;24.85;;;22.20;87.90;;;;;;5080045;28;20092;-59
2021/06/16 06:47:15;;;;;;;30.30;26.98;;;22.30;88.40;;;;;;5092999;28;20081;-56
2021/06/16 06:49:59;;;;;;;27.17;24.27;;;22.30;88.00;;;;;;5093552;28;20445;-59
2021/06/16 06:52:45;;;;;;;27.75;24.83;;;22.40;87.80;;;;;;5093348;28;20387;-59
2021/06/16 06:55:29;;;;;;;27.48;24.58;;;22.40;88.30;;;;;;5094125;28;20043;-58
2021/06/16 06:58:14;;;;;;;25.33;22.63;;;22.20;88.90;;;;;;5094572;28;20039;-61
2021/06/16 07:00:58;;;;;;;;;;;22.40;88.30;;;;;;5093826;28;20130;-60
2021/06/16 07:03:42;;;;;;;26.02;23.52;;;22.50;87.90;;;;;;5092482;28;19915;-57
2021/06/16 07:06:31;;;;;;;26.90;24.13;;;22.60;87.70;;;;;;5072790;28;20048;-59
2021/06/16 07:09:15;;;;;;;33.75;24.48;;;22.80;87.30;;;;;;5072149;28;20075;-60
2021/06/16 07:11:59;;;;;;;29.05;25.98;;;22.80;87.00;;;;;;5072654;28;20108;-62
2021/06/16 07:14:44;;;;;;;28.83;25.65;;;22.80;87.20;;;;;;5057395;28;20242;-57
2021/06/16 07:17:28;;;;;;;31.63;23.75;;;22.90;87.10;;;;;;5103750;28;20549;-59
2021/06/16 07:20:16;;;;;;;25.33;22.70;;;22.80;87.40;;;;;;5077666;28;20071;-61
2021/06/16 07:23:01;;;;;;;25.08;22.48;;;22.90;87.10;;;;;;5107425;28;20430;-60
2021/06/16 07:25:45;;;;;;;24.52;21.90;;;23.00;86.70;;;;;;5103293;28;20034;-58
2021/06/16 07:28:29;;;;;;;23.95;21.35;;;23.30;86.20;;;;;;5082933;28;20063;-59
2021/06/16 07:31:16;;;;;;;26.83;23.95;;;23.50;85.80;;;;;;5086426;28;20035;-59
2021/06/16 07:34:00;;;;;;;24.55;22.08;;;23.60;85.50;;;;;;5078869;28;20465;-59
2021/06/16 07:36:44;;;;;;;23.77;21.40;;;23.60;85.30;;;;;;5092823;28;20027;-60
2021/06/16 07:39:28;;;;;;;25.17;21.48;;;23.60;85.10;;;;;;5092573;28;20703;-59
2021/06/16 07:42:16;;;;;;;21.27;19.25;;;23.70;85.00;;;;;;5101979;28;20038;-58
2021/06/16 07:45:01;;;;;;;24.98;20.45;;;23.70;85.00;;;;;;5059035;28;20067;-59
2021/06/16 07:47:45;;;;;;;22.52;19.15;;;23.70;84.40;;;;;;5064703;28;20658;-59
2021/06/16 07:50:29;;;;;;;29.08;21.13;;;23.80;84.30;;;;;;5098566;28;20043;-57
2021/06/16 07:53:16;;;;;;;24.17;19.83;;;23.70;84.70;;;;;;5097665;28;20031;-60
2021/06/16 07:56:01;;;;;;;27.00;20.65;;;23.70;85.00;;;;;;5114646;28;20035;-59
2021/06/16 07:58:45;;;;;;;24.85;21.30;;;23.70;84.90;;;;;;5115628;28;20064;-59
2021/06/16 08:01:29;;;;;;;21.48;18.88;;;23.80;84.50;;;;;;5110758;28;20042;-57
2021/06/16 08:04:13;;;;;;;21.70;19.15;;;23.90;84.40;;;;;;5095181;28;20039;-58
2021/06/16 08:06:57;;;;;;;21.35;19.20;;;23.90;84.20;;;;;;5075147;28;20043;-56
2021/06/16 08:09:44;;;;;;;21.42;19.30;;;24.00;84.10;;;;;;5087738;28;20036;-56
2021/06/16 08:12:29;;;;;;;25.60;20.05;;;24.10;83.90;;;;;;5101681;28;20035;-55
2021/06/16 08:15:14;;;;;;;21.60;19.40;;;24.20;83.60;;;;;;5097451;28;20026;-58
2021/06/16 08:17:58;;;;;;;23.10;17.90;;;24.30;83.40;;;;;;5084284;28;20039;-58
2021/06/16 08:20:43;;;;;;;22.13;18.13;;;24.30;83.20;;;;;;5075731;28;20035;-59
2021/06/16 08:23:26;;;;;;;21.67;17.75;;;24.30;83.30;;;;;;5103202;28;20039;-59
2021/06/16 08:26:11;;;;;;;19.63;17.08;;;24.50;83.20;;;;;;5095573;28;20047;-60
2021/06/16 08:28:55;;;;;;;19.80;17.70;;;24.60;82.80;;;;;;5092305;28;20111;-58
2021/06/16 08:31:39;;;;;;;21.48;17.35;;;24.60;82.60;;;;;;5083804;28;20047;-56
2021/06/16 08:34:24;;;;;;;19.80;16.13;;;24.60;82.90;;;;;;5093430;28;20047;-56
2021/06/16 08:37:09;;;;;;;23.63;18.13;;;24.50;83.00;;;;;;5092242;28;20117;-60
2021/06/16 08:39:53;;;;;;;20.05;17.20;;;24.40;82.70;;;;;;5093649;28;20034;-61
2021/06/16 08:42:37;;;;;;;19.55;16.08;;;24.40;82.70;;;;;;5091967;28;20074;-60
2021/06/16 08:45:21;;;;;;;17.27;15.77;;;24.50;82.20;;;;;;5089885;28;20070;-61
2021/06/16 08:48:06;;;;;;;19.77;15.77;;;24.60;82.20;;;;;;5107245;28;20073;-58
2021/06/16 08:50:51;;;;;;;18.35;15.95;;;24.70;81.80;;;;;;5093002;28;20042;-58
2021/06/16 08:53:35;;;;;;;17.63;15.82;;;25.00;81.50;;;;;;5087265;28;20098;-62
2021/06/16 08:56:19;;;;;;;19.08;15.00;;;25.10;80.60;;;;;;5090142;28;20038;-58
2021/06/16 08:59:04;;;;;;;17.27;15.25;;;25.20;79.80;;;;;;5086261;28;20039;-59
2021/06/16 09:01:51;;;;;;;16.73;15.02;;;25.30;79.40;;;;;;5075516;28;20085;-61
2021/06/16 09:04:47;;;;;;;19.23;14.88;;;25.40;78.50;;;;;;5093265;28;20031;-61
2021/06/16 09:07:33;;;;;;;22.90;15.90;;;25.40;78.30;;;;;;5080303;28;20030;-62
2021/06/16 09:10:20;;;;;;;24.15;16.70;;;25.40;78.00;;;;;;5095158;28;20398;-59
2021/06/16 09:13:08;;;;;;;17.80;13.45;;;25.50;78.00;;;;;;5094947;28;20093;-58
2021/06/16 09:15:54;;;;;;;19.00;16.00;;;25.60;77.90;;;;;;5095158;28;20019;-61
2021/06/16 09:18:44;;;;;;;19.77;15.70;;;25.80;77.40;;;;;;5094957;28;20034;-58
2021/06/16 09:21:40;;;;;;;18.80;14.55;;;25.90;77.00;;;;;;5095108;28;20150;-57
2021/06/16 09:24:24;;;;;;;19.05;14.35;;;26.00;77.10;;;;;;5072294;28;20039;-58
2021/06/16 09:27:09;;;;;;;16.77;14.93;;;26.20;76.60;;;;;;5074249;28;20506;-56
2021/06/16 09:29:53;;;;;;;17.52;15.15;;;26.30;76.60;;;;;;5105952;28;20564;-61
2021/06/16 09:32:43;;;;;;;17.35;15.55;;;26.50;76.80;;;;;;5093479;28;20062;-62
2021/06/16 09:35:36;;;;;;;18.83;16.50;;;26.50;76.60;;;;;;5074604;28;20384;-57
2021/06/16 09:38:31;;;;;;;15.20;13.70;;;26.40;76.80;;;;;;5090299;28;20031;-55
2021/06/16 09:41:21;;;;;;;17.00;15.30;;;26.60;76.90;;;;;;5086097;28;20392;-56
2021/06/16 09:44:05;;;;;;;16.88;14.75;;;26.50;77.00;;;;;;5074442;28;20055;-59
2021/06/16 09:47:09;;;;;;;15.88;13.48;;;26.50;76.60;;;;;;5059676;28;20442;-59
2021/06/16 09:49:59;;;;;;;18.20;16.27;;;26.60;76.30;;;;;;5074163;28;20039;-61
2021/06/16 09:52:43;;;;;;;18.02;16.05;;;26.60;76.30;;;;;;5074334;28;20028;-60
2021/06/16 09:55:29;;;;;;;16.52;14.88;;;26.30;76.20;;;;;;5059003;28;20542;-60
2021/06/16 09:58:17;;;;;;;18.00;13.65;;;26.20;77.30;;;;;;5088581;28;20039;-60
2021/06/16 10:01:02;;;;;;;18.67;15.05;;;26.30;76.80;;;;;;5094314;28;20462;-61
2021/06/16 10:03:46;;;;;;;35.58;25.15;;;26.50;75.30;;;;;;5078794;28;20074;-62
2021/06/16 10:06:30;;;;;;;17.90;14.85;;;26.50;74.90;;;;;;5089296;28;20112;-62
2021/06/16 10:09:14;;;;;;;14.80;13.30;;;26.70;74.50;;;;;;5075884;28;20061;-62
2021/06/16 10:12:00;;;;;;;15.60;13.90;;;26.90;73.70;;;;;;5087197;28;20419;-63
2021/06/16 10:14:44;;;;;;;18.83;13.75;;;26.90;74.10;;;;;;5094076;28;20097;-61
2021/06/16 10:17:28;;;;;;;13.75;12.18;;;27.20;74.00;;;;;;5079101;28;20522;-60
2021/06/16 10:20:17;;;;;;;14.55;13.02;;;27.40;73.30;;;;;;5094582;28;20066;-61
2021/06/16 10:23:01;;;;;;;14.48;12.93;;;27.40;72.70;;;;;;5096070;28;20050;-62
2021/06/16 10:25:45;;;;;;;;;;;27.50;72.70;;;;;;5080033;28;20043;-61
2021/06/16 10:28:40;;;;;;;22.15;13.80;;;27.60;73.00;;;;;;5102290;28;19961;-61
2021/06/16 10:31:35;;;;;;;13.32;11.98;;;27.40;71.80;;;;;;5102127;28;20096;-61
2021/06/16 10:34:19;;;;;;;17.90;13.13;;;27.30;72.10;;;;;;5111973;28;20371;-61
2021/06/16 10:37:04;;;;;;;15.82;12.48;;;27.20;72.00;;;;;;5115680;28;20109;-62
2021/06/16 10:40:22;;;;;;;19.02;13.77;;;27.40;71.60;;;;;;5114417;28;20594;-61
2021/06/16 10:43:06;;;;;;;17.48;12.88;;;27.10;71.30;;;;;;5073452;28;20113;-60
2021/06/16 10:45:56;;;;;;;16.92;12.10;;;26.80;72.30;;;;;;5072828;28;20054;-61
2021/06/16 10:48:41;;;;;;;13.88;11.68;;;26.70;73.10;;;;;;5057904;28;20054;-59
2021/06/16 10:51:25;;;;;;;16.33;12.38;;;26.90;72.00;;;;;;5072710;28;20154;-62
2021/06/16 10:54:19;;;;;;;;;;;27.00;72.10;;;;;;5074122;28;20039;-61
2021/06/16 10:57:10;;;;;;;13.57;12.15;;;27.20;71.80;;;;;;5072574;28;19958;-61
2021/06/16 11:00:01;;;;;;;13.73;11.27;;;27.30;71.30;;;;;;5072732;28;20039;-62
2021/06/16 11:02:45;;;;;;;12.15;10.95;;;27.20;72.30;;;;;;5077451;28;20086;-61
2021/06/16 11:05:35;;;;;;;16.35;11.80;;;27.40;71.20;;;;;;5092937;28;20035;-61
2021/06/16 11:08:47;;;;;;;11.77;10.52;;;27.50;70.80;;;;;;5077859;28;20043;-61
2021/06/16 11:12:03;;;;;;;14.75;11.38;;;27.50;70.70;;;;;;5087396;28;20238;-61
2021/06/16 11:14:48;;;;;;;14.15;10.75;;;27.60;70.40;;;;;;5039965;28;20023;-61
2021/06/16 11:17:35;;;;;;;14.02;11.93;;;27.50;70.00;;;;;;5077466;28;20042;-60
2021/06/16 11:20:38;;;;;;;13.27;11.73;;;27.60;70.20;;;;;;5073095;28;20110;-60
2021/06/16 11:23:24;;;;;;;15.20;11.10;;;27.60;70.00;;;;;;5072800;28;20027;-61
2021/06/16 11:26:42;;;;;;;17.45;12.45;;;27.80;69.90;;;;;;5084824;28;20093;-61
2021/06/16 11:30:03;;;;;;;19.08;12.18;;;28.00;70.10;;;;;;5097625;28;20082;-61
2021/06/16 11:33:16;;;;;;;16.85;12.88;;;28.00;69.70;;;;;;5059065;28;20510;-62
2021/06/16 11:36:13;;;;;;;14.75;11.77;;;27.90;70.30;;;;;;5086575;28;20027;-59
2021/06/16 11:39:04;;;;;;;14.27;12.70;;;28.00;69.80;;;;;;5093818;28;20444;-60
2021/06/16 11:41:49;;;;;;;14.20;11.02;;;27.70;69.60;;;;;;5102525;28;20039;-61
2021/06/16 11:44:33;;;;;;;14.27;11.35;;;27.80;70.10;;;;;;5065051;28;20027;-60
2021/06/16 11:47:19;;;;;;;22.98;13.60;;;28.00;69.90;;;;;;5073855;28;20043;-60
2021/06/16 11:50:04;;;;;;;22.15;14.23;;;27.90;69.80;;;;;;5093679;28;20031;-60
2021/06/16 11:53:00;;;;;;;16.48;13.10;;;28.00;70.00;;;;;;5063959;28;20040;-57
2021/06/16 11:55:46;;;;;;;14.50;11.70;;;28.20;69.70;;;;;;5092902;28;20470;-60
2021/06/16 11:58:32;;;;;;;12.10;10.85;;;28.30;69.20;;;;;;5092249;28;20387;-58
2021/06/16 12:01:17;;;;;;;14.10;12.65;;;28.50;68.30;;;;;;5060143;28;20104;-61
2021/06/16 12:04:01;;;;;;;15.73;11.52;;;28.70;67.80;;;;;;5072123;28;20093;-62
2021/06/16 12:06:53;;;;;;;;;;;28.60;67.60;;;;;;5073524;28;20071;-57
2021/06/16 12:09:45;;;;;;;14.60;11.40;;;28.60;66.90;;;;;;5090668;28;19919;-60
2021/06/16 12:13:09;;;;;;;13.85;12.27;;;28.70;67.40;;;;;;5081246;28;20051;-59
2021/06/16 12:15:54;;;;;;;14.02;12.25;;;28.70;66.90;;;;;;5004020;28;20064;-60
2021/06/16 12:18:38;;;;;;;13.40;11.02;;;28.70;67.20;;;;;;5095472;28;20031;-59
2021/06/16 12:21:22;;;;;;;13.05;11.65;;;28.80;66.90;;;;;;5096217;28;20058;-60
2021/06/16 12:24:23;;;;;;;;;;;29.00;66.40;;;;;;5081345;28;20038;-60
2021/06/16 12:27:17;;;;;;;11.65;10.38;;;29.10;65.40;;;;;;5077039;28;19954;-60
2021/06/16 12:30:02;;;;;;;11.90;10.80;;;29.30;64.90;;;;;;5097020;28;20047;-60
2021/06/16 12:33:12;;;;;;;15.57;13.02;;;29.40;64.60;;;;;;5079783;28;20102;-61
2021/06/16 12:36:00;;;;;;;13.23;11.35;;;29.40;63.60;;;;;;5060151;28;20032;-58
2021/06/16 12:38:47;;;;;;;20.60;13.15;;;29.40;64.10;;;;;;5075758;28;20589;-61
2021/06/16 12:41:34;;;;;;;14.70;12.63;;;29.60;64.00;;;;;;5083658;28;20581;-60
2021/06/16 12:44:24;;;;;;;19.25;13.57;;;29.70;63.60;;;;;;5089764;28;20062;-61
2021/06/16 12:47:12;;;;;;;10.88;9.75;;;29.80;63.40;;;;;;5075704;28;20510;-60
2021/06/16 12:49:56;;;;;;;11.25;10.15;;;29.70;63.20;;;;;;5074974;28;20097;-58
2021/06/16 12:52:40;;;;;;;13.82;10.90;;;29.90;63.30;;;;;;5075778;28;20078;-61
2021/06/16 12:55:25;;;;;;;13.32;10.32;;;30.00;62.70;;;;;;5060263;28;20036;-61
2021/06/16 12:58:10;;;;;;;13.40;10.15;;;30.10;62.50;;;;;;5076202;28;20388;-61
2021/06/16 13:00:57;;;;;;;12.60;10.40;;;30.00;62.20;;;;;;5093592;28;20051;-62
2021/06/16 13:03:47;;;;;;;12.85;10.52;;;29.90;62.10;;;;;;5095931;28;20530;-61
2021/06/16 13:06:31;;;;;;;15.75;11.32;;;30.00;62.60;;;;;;5095795;28;20077;-60
2021/06/16 13:09:22;;;;;;;;;;;30.20;61.70;;;;;;5075056;28;20064;-61
2021/06/16 13:12:07;;;;;;;13.40;9.82;;;30.30;61.40;;;;;;5075157;28;19950;-59
2021/06/16 13:14:59;;;;;;;12.50;9.20;;;30.50;61.60;;;;;;5079215;28;20062;-60
2021/06/16 13:17:57;;;;;;;10.60;9.55;;;30.70;61.60;;;;;;5094915;28;20155;-59
2021/06/16 13:20:42;;;;;;;13.27;9.57;;;30.90;60.90;;;;;;5079797;28;20073;-61
2021/06/16 13:23:33;;;;;;;14.98;10.05;;;31.00;60.40;;;;;;5095350;28;20069;-61
2021/06/16 13:26:17;;;;;;;12.52;9.45;;;30.70;60.50;;;;;;5095426;28;20043;-61
2021/06/16 13:29:07;;;;;;;14.05;9.90;;;30.20;61.20;;;;;;5095117;28;20039;-59
2021/06/16 13:31:51;;;;;;;13.27;9.40;;;30.20;61.90;;;;;;5095363;28;20078;-59
2021/06/16 13:34:37;;;;;;;12.48;9.75;;;30.40;61.70;;;;;;5095334;28;20047;-61
2021/06/16 13:37:21;;;;;;;13.95;11.15;;;30.70;61.30;;;;;;5094729;28;20085;-59
2021/06/16 13:40:05;;;;;;;13.50;10.00;;;31.10;60.30;;;;;;5080111;28;20039;-59
2021/06/16 13:42:56;;;;;;;18.92;10.63;;;31.40;60.20;;;;;;5094636;28;20078;-62
2021/06/16 13:45:40;;;;;;;11.45;9.48;;;31.60;59.40;;;;;;5094601;28;20043;-61
2021/06/16 13:48:24;;;;;;;14.77;9.85;;;31.70;59.40;;;;;;5094667;28;20056;-61
2021/06/16 13:51:09;;;;;;;22.75;10.43;;;31.50;59.50;;;;;;5094404;28;20085;-61
2021/06/16 13:53:53;;;;;;;20.65;10.82;;;31.60;58.80;;;;;;5094693;28;20027;-59
2021/06/16 13:56:38;;;;;;;12.07;9.88;;;31.80;58.40;;;;;;5095336;28;20035;-59
2021/06/16 13:59:22;;;;;;;13.52;9.32;;;31.70;58.20;;;;;;5094918;28;20035;-61
2021/06/16 14:02:08;;;;;;;21.05;11.15;;;31.80;59.00;;;;;;5095355;28;20038;-57
2021/06/16 14:04:52;;;;;;;12.70;10.10;;;32.10;58.00;;;;;;5094597;28;20403;-61
2021/06/16 14:07:37;;;;;;;9.98;9.02;;;32.30;57.70;;;;;;5094097;28;20015;-61
2021/06/16 14:10:24;;;;;;;12.02;10.27;;;32.50;57.30;;;;;;5078028;28;20517;-63
2021/06/16 14:13:08;;;;;;;11.10;9.40;;;32.70;56.80;;;;;;5094708;28;20081;-60